createdAt,value
2018-07-16T00:04:08.876Z,26.10
2018-07-16T00:06:38.248Z,26.00
2018-07-16T00:09:07.527Z,26.00
2018-07-16T00:11:36.801Z,26.00
2018-07-16T00:14:06.145Z,26.00
2018-07-16T00:16:35.450Z,25.90
2018-07-16T00:19:04.804Z,25.90
2018-07-16T00:21:34.137Z,25.80
2018-07-16T00:24:03.454Z,25.80
2018-07-16T00:29:01.571Z,25.80
2018-07-16T00:31:30.810Z,25.80
2018-07-16T00:34:00.083Z,25.80
2018-07-16T00:36:29.447Z,25.80
2018-07-16T00:41:27.470Z,25.70
2018-07-16T00:43:56.774Z,25.70
2018-07-16T00:46:26.024Z,25.70
2018-07-16T00:48:55.315Z,25.70
2018-07-16T00:51:24.648Z,25.60
2018-07-16T00:53:54.320Z,25.50
2018-07-16T00:56:23.721Z,25.50
2018-07-16T00:58:53.155Z,25.50
2018-07-16T01:03:51.166Z,25.50
2018-07-16T01:06:20.509Z,25.50
2018-07-16T01:08:49.798Z,25.40
2018-07-16T01:11:19.208Z,25.50
2018-07-16T01:13:48.590Z,25.50
2018-07-16T01:16:17.930Z,25.50
2018-07-16T01:21:16.140Z,25.40
2018-07-16T01:26:15.410Z,25.40
2018-07-16T01:28:44.904Z,25.40
2018-07-16T01:31:14.210Z,25.40
2018-07-16T01:33:43.512Z,25.40
2018-07-16T01:36:12.887Z,25.30
2018-07-16T01:38:42.238Z,25.30
2018-07-16T01:41:11.565Z,25.30
2018-07-16T01:46:09.865Z,25.20
2018-07-16T01:48:39.186Z,25.20
2018-07-16T01:51:08.571Z,25.20
2018-07-16T01:53:37.910Z,25.20
2018-07-16T01:56:07.205Z,25.20
2018-07-16T01:58:36.543Z,25.20
2018-07-16T02:01:05.873Z,25.10
2018-07-16T02:03:35.500Z,25.10
2018-07-16T02:06:04.826Z,25.10
2018-07-16T02:08:34.131Z,25.00
2018-07-16T02:11:03.492Z,25.00
2018-07-16T02:13:32.791Z,25.00
2018-07-16T02:16:02.093Z,25.00
2018-07-16T02:18:31.376Z,25.00
2018-07-16T02:23:29.493Z,25.00
2018-07-16T02:25:58.804Z,25.00
2018-07-16T02:28:28.153Z,24.90
2018-07-16T02:35:55.047Z,24.90
2018-07-16T02:38:24.336Z,24.90
2018-07-16T02:40:53.652Z,25.00
2018-07-16T02:43:22.968Z,24.90
2018-07-16T02:45:52.345Z,25.00
2018-07-16T02:50:50.378Z,25.00
2018-07-16T02:53:19.685Z,24.90
2018-07-16T02:55:48.963Z,24.90
2018-07-16T02:58:18.357Z,24.80
2018-07-16T03:00:48.560Z,24.90
2018-07-16T03:03:18.059Z,24.90
2018-07-16T03:05:47.475Z,24.80
2018-07-16T03:08:16.866Z,24.80
2018-07-16T03:10:47.187Z,24.80
2018-07-16T03:15:46.353Z,24.80
2018-07-16T03:18:16.265Z,24.70
2018-07-16T03:20:46.373Z,24.70
2018-07-16T03:23:16.312Z,24.60
2018-07-16T03:25:45.758Z,24.60
2018-07-16T03:28:15.104Z,24.70
2018-07-16T03:30:44.386Z,24.70
2018-07-16T03:33:13.680Z,24.70
2018-07-16T03:35:43.105Z,24.60
2018-07-16T03:38:12.394Z,24.50
2018-07-16T03:40:41.700Z,24.50
2018-07-16T03:43:11.104Z,24.50
2018-07-16T03:45:40.426Z,24.60
2018-07-16T03:48:09.832Z,24.50
2018-07-16T03:50:39.071Z,24.60
2018-07-16T03:53:08.353Z,24.50
2018-07-16T03:55:37.679Z,24.50
2018-07-16T03:58:07.005Z,24.60
2018-07-16T04:00:36.284Z,24.60
2018-07-16T04:03:05.683Z,24.60
2018-07-16T04:05:34.952Z,24.50
2018-07-16T04:08:04.213Z,24.50
2018-07-16T04:10:33.496Z,24.50
2018-07-16T04:13:02.816Z,24.50
2018-07-16T04:15:32.151Z,24.40
2018-07-16T04:20:30.327Z,24.40
2018-07-16T04:22:59.706Z,24.40
2018-07-16T04:25:29.060Z,24.40
2018-07-16T04:30:27.082Z,24.30
2018-07-16T04:32:56.390Z,24.30
2018-07-16T04:35:25.740Z,24.30
2018-07-16T04:42:52.713Z,24.30
2018-07-16T04:45:22.089Z,24.40
2018-07-16T04:47:51.738Z,24.40
2018-07-16T04:50:21.129Z,24.40
2018-07-16T04:52:50.648Z,24.40
2018-07-16T04:55:20.035Z,24.30
2018-07-16T05:00:18.279Z,24.30
2018-07-16T05:02:47.573Z,24.30
2018-07-16T05:05:16.873Z,24.30
2018-07-16T05:07:46.255Z,24.30
2018-07-16T05:10:15.580Z,24.30
2018-07-16T05:12:44.941Z,24.30
2018-07-16T05:15:14.262Z,24.20
2018-07-16T05:17:43.577Z,24.20
2018-07-16T05:20:12.867Z,24.20
2018-07-16T05:22:42.184Z,24.20
2018-07-16T05:25:11.566Z,24.10
2018-07-16T05:27:41.098Z,24.00
2018-07-16T05:30:10.462Z,24.00
2018-07-16T05:32:40.140Z,24.00
2018-07-16T05:35:09.222Z,24.00
2018-07-16T05:37:38.698Z,24.00
2018-07-16T05:40:08.072Z,24.00
2018-07-16T05:42:37.383Z,24.00
2018-07-16T05:45:06.766Z,24.00
2018-07-16T05:47:36.088Z,24.10
2018-07-16T05:50:05.411Z,24.10
2018-07-16T05:52:34.773Z,24.10
2018-07-16T05:55:04.155Z,24.10
2018-07-16T05:57:33.470Z,24.20
2018-07-16T06:00:02.784Z,24.10
2018-07-16T06:02:32.176Z,24.20
2018-07-16T06:05:01.517Z,24.20
2018-07-16T06:07:30.856Z,24.20
2018-07-16T06:10:00.333Z,24.20
2018-07-16T06:12:29.720Z,24.20
2018-07-16T06:14:59.019Z,24.30
2018-07-16T06:17:29.423Z,24.40
2018-07-16T06:19:58.801Z,24.40
2018-07-16T06:22:28.847Z,24.40
2018-07-16T06:24:58.230Z,24.40
2018-07-16T06:27:28.188Z,24.40
2018-07-16T06:29:57.585Z,24.40
2018-07-16T06:32:27.991Z,24.40
2018-07-16T06:34:57.674Z,24.40
2018-07-16T06:37:27.237Z,24.30
2018-07-16T06:39:56.763Z,24.30
2018-07-16T06:42:27.151Z,24.40
2018-07-16T06:44:56.665Z,24.40
2018-07-16T06:47:26.080Z,24.40
2018-07-16T06:52:24.585Z,24.40
2018-07-16T06:54:53.880Z,24.30
2018-07-16T06:57:23.249Z,24.40
2018-07-16T06:59:52.640Z,24.40
2018-07-16T07:02:22.053Z,24.40
2018-07-16T07:04:51.323Z,24.40
2018-07-16T07:07:20.748Z,24.40
2018-07-16T07:09:50.042Z,24.40
2018-07-16T07:12:19.378Z,24.40
2018-07-16T07:14:48.844Z,24.40
2018-07-16T07:17:18.167Z,24.40
2018-07-16T07:19:47.551Z,24.40
2018-07-16T07:22:16.862Z,24.40
2018-07-16T07:24:46.183Z,24.50
2018-07-16T07:27:15.878Z,24.50
2018-07-16T07:29:45.232Z,24.50
2018-07-16T07:32:14.550Z,24.50
2018-07-16T07:34:43.838Z,24.60
2018-07-16T07:37:13.265Z,24.50
2018-07-16T07:39:42.553Z,24.50
2018-07-16T07:42:11.970Z,24.60
2018-07-16T07:44:41.285Z,24.60
2018-07-16T07:47:10.598Z,24.60
2018-07-16T07:49:39.858Z,24.60
2018-07-16T07:52:09.153Z,24.70
2018-07-16T07:54:38.587Z,24.70
2018-07-16T07:57:07.853Z,24.70
2018-07-16T07:59:37.152Z,24.70
2018-07-16T08:02:06.550Z,24.70
2018-07-16T08:07:09.764Z,24.80
2018-07-16T08:09:39.196Z,24.80
2018-07-16T08:12:09.344Z,24.80
2018-07-16T08:19:36.314Z,24.90
2018-07-16T08:22:05.741Z,24.90
2018-07-16T08:27:03.878Z,25.00
2018-07-16T08:29:33.143Z,25.00
2018-07-16T08:32:02.476Z,25.00
2018-07-16T08:34:31.796Z,25.00
2018-07-16T08:37:01.125Z,25.10
2018-07-16T08:39:30.496Z,25.00
2018-07-16T08:41:59.912Z,24.90
2018-07-16T08:44:29.309Z,24.80
2018-07-16T08:46:58.796Z,24.70
2018-07-16T08:49:28.102Z,24.70
2018-07-16T08:51:57.385Z,24.70
2018-07-16T08:54:26.704Z,24.70
2018-07-16T08:56:55.996Z,24.80
2018-07-16T08:59:25.373Z,24.90
2018-07-16T09:01:54.780Z,25.10
2018-07-16T09:04:24.094Z,25.20
2018-07-16T09:06:53.413Z,25.30
2018-07-16T09:09:23.113Z,25.40
2018-07-16T09:11:52.387Z,25.40
2018-07-16T09:14:22.182Z,25.40
2018-07-16T09:16:51.638Z,25.40
2018-07-16T09:21:49.894Z,25.60
2018-07-16T09:24:19.296Z,25.60
2018-07-16T09:26:48.581Z,25.80
2018-07-16T09:29:17.940Z,25.80
2018-07-16T09:31:47.275Z,25.80
2018-07-16T09:34:17.581Z,25.70
2018-07-16T09:36:46.879Z,25.80
2018-07-16T09:39:16.205Z,26.00
2018-07-16T09:44:14.361Z,26.10
2018-07-16T09:46:43.663Z,26.20
2018-07-16T09:49:13.010Z,26.30
2018-07-16T09:51:42.311Z,26.40
2018-07-16T09:54:11.671Z,26.40
2018-07-16T09:56:41.021Z,26.40
2018-07-16T09:59:10.424Z,26.50
2018-07-16T10:01:43.637Z,26.50
2018-07-16T10:04:13.880Z,26.50
2018-07-16T10:06:43.178Z,26.60
2018-07-16T10:09:12.557Z,26.70
2018-07-16T10:11:41.884Z,26.80
2018-07-16T10:14:11.152Z,27.00
2018-07-16T10:16:40.504Z,27.10
2018-07-16T10:19:09.952Z,27.10
2018-07-16T10:21:39.344Z,26.90
2018-07-16T10:24:08.785Z,26.80
2018-07-16T10:26:38.099Z,26.80
2018-07-16T10:29:07.492Z,26.80
2018-07-16T10:31:36.869Z,26.80
2018-07-16T10:34:06.288Z,26.80
2018-07-16T10:36:35.677Z,26.80
2018-07-16T10:39:05.795Z,26.90
2018-07-16T10:41:35.109Z,27.00
2018-07-16T10:44:04.466Z,27.10
2018-07-16T10:46:33.898Z,27.30
2018-07-16T10:49:03.199Z,27.50
2018-07-16T10:51:32.588Z,27.70
2018-07-16T10:54:01.921Z,27.80
2018-07-16T10:56:31.344Z,27.80
2018-07-16T10:59:00.706Z,27.90
2018-07-16T11:01:29.984Z,28.10
2018-07-16T11:03:59.265Z,28.10
2018-07-16T11:06:28.647Z,28.20
2018-07-16T11:08:57.963Z,28.40
2018-07-16T11:13:56.120Z,28.30
2018-07-16T11:16:25.429Z,28.00
2018-07-16T11:18:54.737Z,27.90
2018-07-16T11:21:24.340Z,27.70
2018-07-16T11:23:53.719Z,27.70
2018-07-16T11:26:23.120Z,27.60
2018-07-16T11:28:52.496Z,27.50
2018-07-16T11:31:21.868Z,27.40
2018-07-16T11:36:20.724Z,27.40
2018-07-16T11:38:50.049Z,27.50
2018-07-16T11:41:19.344Z,27.60
2018-07-16T11:43:48.632Z,27.60
2018-07-16T11:46:18.079Z,27.70
2018-07-16T11:48:47.389Z,27.80
2018-07-16T11:51:16.790Z,27.90
2018-07-16T11:53:46.108Z,27.90
2018-07-16T11:56:15.664Z,28.00
2018-07-16T11:58:45.029Z,28.00
2018-07-16T12:01:14.545Z,28.20
2018-07-16T12:03:43.849Z,28.10
2018-07-16T12:06:18.312Z,28.00
2018-07-16T12:13:45.329Z,27.60
2018-07-16T12:16:14.725Z,27.40
2018-07-16T12:18:44.017Z,27.30
2018-07-16T12:21:13.320Z,27.10
2018-07-16T12:23:42.715Z,27.00
2018-07-16T12:26:12.790Z,27.00
2018-07-16T12:28:42.116Z,27.00
2018-07-16T12:33:40.162Z,26.70
2018-07-16T12:36:09.464Z,26.70
2018-07-16T12:38:38.857Z,26.70
2018-07-16T12:41:08.229Z,26.70
2018-07-16T12:43:37.535Z,26.70
2018-07-16T12:46:06.872Z,26.60
2018-07-16T12:48:36.131Z,26.60
2018-07-16T12:51:05.453Z,26.50
2018-07-16T12:53:34.821Z,26.40
2018-07-16T12:58:32.896Z,26.30
2018-07-16T13:01:02.233Z,26.30
2018-07-16T13:03:31.562Z,26.30
2018-07-16T13:06:00.855Z,26.30
2018-07-16T13:08:30.221Z,26.30
2018-07-16T13:10:59.569Z,26.30
2018-07-16T13:13:28.819Z,26.30
2018-07-16T13:15:58.202Z,26.30
2018-07-16T13:18:27.610Z,26.30
2018-07-16T13:20:56.892Z,26.30
2018-07-16T13:23:26.312Z,26.30
2018-07-16T13:25:55.683Z,26.40
2018-07-16T13:28:25.031Z,26.30
2018-07-16T13:30:54.336Z,26.10
2018-07-16T13:33:23.817Z,26.10
2018-07-16T13:40:51.309Z,25.90
2018-07-16T13:43:21.502Z,26.00
2018-07-16T13:45:51.066Z,26.00
2018-07-16T13:48:20.514Z,25.90
2018-07-16T13:50:49.953Z,25.80
2018-07-16T13:55:48.108Z,25.80
2018-07-16T13:58:17.791Z,25.70
2018-07-16T14:00:47.421Z,25.70
2018-07-16T14:03:16.860Z,25.70
2018-07-16T14:08:14.974Z,25.70
2018-07-16T14:10:44.376Z,25.70
2018-07-16T14:13:13.752Z,25.80
2018-07-16T14:15:43.141Z,25.80
2018-07-16T14:18:12.540Z,25.80
2018-07-16T14:20:41.906Z,25.80
2018-07-16T14:23:11.211Z,25.80
2018-07-16T14:25:40.516Z,25.80
2018-07-16T14:28:09.914Z,25.80
2018-07-16T14:30:39.284Z,25.90
2018-07-16T14:33:08.576Z,25.80
2018-07-16T14:35:37.899Z,25.70
2018-07-16T14:38:07.287Z,25.70
2018-07-16T14:40:36.569Z,25.60
2018-07-16T14:43:05.981Z,25.60
2018-07-16T14:45:35.443Z,25.50
2018-07-16T14:48:04.755Z,25.40
2018-07-16T14:53:02.830Z,25.30
2018-07-16T14:55:32.243Z,25.30
2018-07-16T15:00:30.377Z,25.20
2018-07-16T15:02:59.695Z,25.10
2018-07-16T15:05:29.011Z,25.10
2018-07-16T15:07:58.304Z,25.00
2018-07-16T15:10:27.614Z,25.00
2018-07-16T15:12:56.998Z,25.00
2018-07-16T15:15:26.289Z,25.00
2018-07-16T15:17:55.649Z,25.00
2018-07-16T15:22:53.945Z,25.10
2018-07-16T15:25:23.286Z,25.20
2018-07-16T15:27:52.601Z,25.20
2018-07-16T15:30:21.912Z,25.10
2018-07-16T15:32:51.242Z,25.10
2018-07-16T15:37:49.565Z,25.20
2018-07-16T15:40:18.943Z,25.20
2018-07-16T15:45:16.990Z,25.20
2018-07-16T15:47:46.264Z,25.20
2018-07-16T15:50:15.634Z,25.20
2018-07-16T15:52:44.917Z,25.20
2018-07-16T15:57:42.951Z,25.20
2018-07-16T16:00:12.335Z,25.30
2018-07-16T16:02:41.665Z,25.30
2018-07-16T16:05:10.992Z,25.20
2018-07-16T16:07:40.278Z,25.20
2018-07-16T16:10:09.594Z,25.20
2018-07-16T16:12:38.912Z,25.20
2018-07-16T16:17:37.051Z,25.20
2018-07-16T16:20:06.386Z,25.20
2018-07-16T16:22:35.785Z,25.10
2018-07-16T16:25:05.168Z,25.10
2018-07-16T16:27:34.470Z,25.10
2018-07-16T16:30:04.028Z,25.10
2018-07-16T16:32:33.436Z,25.00
2018-07-16T16:35:02.755Z,24.90
2018-07-16T16:37:32.014Z,24.90
2018-07-16T16:40:01.499Z,24.80
2018-07-16T16:42:30.852Z,24.70
2018-07-16T16:45:00.282Z,24.70
2018-07-16T16:47:29.577Z,24.70
2018-07-16T16:49:58.914Z,24.50
2018-07-16T16:52:28.134Z,24.50
2018-07-16T16:54:57.482Z,24.50
2018-07-16T16:57:26.892Z,24.50
2018-07-16T16:59:56.329Z,24.50
2018-07-16T17:02:25.632Z,24.50
2018-07-16T17:07:23.741Z,24.50
2018-07-16T17:09:53.082Z,24.60
2018-07-16T17:12:22.367Z,24.60
2018-07-16T17:14:51.677Z,24.60
2018-07-16T17:17:20.945Z,24.70
2018-07-16T17:19:50.250Z,24.70
2018-07-16T17:22:19.581Z,24.70
2018-07-16T17:24:48.976Z,24.70
2018-07-16T17:27:18.286Z,24.70
2018-07-16T17:29:47.566Z,24.70
2018-07-16T17:32:16.867Z,24.70
2018-07-16T17:34:46.214Z,24.70
2018-07-16T17:39:44.284Z,24.70
2018-07-16T17:42:20.031Z,24.70
2018-07-16T17:44:49.425Z,24.60
2018-07-16T17:47:18.972Z,24.60
2018-07-16T17:52:17.100Z,24.60
2018-07-16T17:54:46.483Z,24.70
2018-07-16T17:57:15.755Z,24.70
2018-07-16T18:02:13.824Z,24.60
2018-07-16T18:04:43.072Z,24.60
2018-07-16T18:07:16.446Z,24.50
2018-07-16T18:09:46.391Z,24.50
2018-07-16T18:12:15.666Z,24.50
2018-07-16T18:14:45.080Z,24.50
2018-07-16T18:17:14.407Z,24.50
2018-07-16T18:19:43.685Z,24.60
2018-07-16T18:22:13.199Z,24.50
2018-07-16T18:24:42.607Z,24.50
2018-07-16T18:27:12.032Z,24.50
2018-07-16T18:29:41.348Z,24.50
2018-07-16T18:32:10.709Z,24.50
2018-07-16T18:34:40.008Z,24.50
2018-07-16T18:37:09.327Z,24.60
2018-07-16T18:39:38.669Z,24.60
2018-07-16T18:44:37.079Z,24.70
2018-07-16T18:47:06.380Z,24.70
2018-07-16T18:49:35.711Z,24.70
2018-07-16T18:52:05.079Z,24.70
2018-07-16T18:54:34.408Z,24.70
2018-07-16T18:57:03.790Z,24.70
2018-07-16T18:59:33.138Z,24.70
2018-07-16T19:02:02.551Z,24.80
2018-07-16T19:04:31.851Z,24.80
2018-07-16T19:07:05.849Z,24.80
2018-07-16T19:09:35.582Z,24.80
2018-07-16T19:12:05.090Z,24.80
2018-07-16T19:17:03.512Z,24.90
2018-07-16T19:19:33.023Z,24.90
2018-07-16T19:22:02.339Z,24.90
2018-07-16T19:24:31.683Z,24.90
2018-07-16T19:27:00.981Z,24.90
2018-07-16T19:29:30.337Z,24.90
2018-07-16T19:32:00.459Z,24.90
2018-07-16T19:34:29.821Z,24.90
2018-07-16T19:36:59.216Z,24.90
2018-07-16T19:41:57.245Z,24.90
2018-07-16T19:44:26.650Z,24.90
2018-07-16T19:46:55.969Z,24.90
2018-07-16T19:49:25.307Z,24.90
2018-07-16T19:51:54.715Z,25.00
2018-07-16T19:56:52.870Z,25.00
2018-07-16T19:59:22.548Z,25.00
2018-07-16T20:01:51.942Z,25.00
2018-07-16T20:04:21.344Z,25.00
2018-07-16T20:06:53.575Z,25.00
2018-07-16T20:09:23.035Z,25.00
2018-07-16T20:11:52.477Z,25.00
2018-07-16T20:14:21.876Z,25.00
2018-07-16T20:16:51.164Z,25.00
2018-07-16T20:19:20.640Z,25.10
2018-07-16T20:21:50.014Z,25.00
2018-07-16T20:24:19.408Z,25.10
2018-07-16T20:31:46.568Z,25.00
2018-07-16T20:34:15.867Z,25.00
2018-07-16T20:36:45.266Z,25.00
2018-07-16T20:39:14.615Z,24.90
2018-07-16T20:41:43.951Z,24.90
2018-07-16T20:44:13.549Z,24.90
2018-07-16T20:46:43.013Z,24.90
2018-07-16T20:49:12.296Z,24.80
2018-07-16T20:51:41.646Z,24.70
2018-07-16T20:54:11.086Z,24.70
2018-07-16T20:56:40.434Z,24.70
2018-07-16T20:59:09.797Z,24.60
2018-07-16T21:01:39.103Z,24.50
2018-07-16T21:04:08.516Z,24.50
2018-07-16T21:09:08.641Z,24.50
2018-07-16T21:11:38.410Z,24.50
2018-07-16T21:14:07.969Z,24.50
2018-07-16T21:19:06.226Z,24.50
2018-07-16T21:21:35.633Z,24.50
2018-07-16T21:24:05.856Z,24.40
2018-07-16T21:26:40.860Z,24.40
2018-07-16T21:29:10.246Z,24.40
2018-07-16T21:31:39.644Z,24.50
2018-07-16T21:34:09.039Z,24.50
2018-07-16T21:36:38.346Z,24.50
2018-07-16T21:39:08.306Z,24.50
2018-07-16T21:41:37.593Z,24.50
2018-07-16T21:44:06.988Z,24.50
2018-07-16T21:46:36.286Z,24.50
2018-07-16T21:49:05.686Z,24.50
2018-07-16T21:51:35.018Z,24.50
2018-07-16T21:54:04.307Z,24.60
2018-07-16T21:56:33.611Z,24.50
2018-07-16T21:59:02.908Z,24.60
2018-07-16T22:01:32.322Z,24.60
2018-07-16T22:04:01.597Z,24.60
2018-07-16T22:06:30.950Z,24.50
2018-07-16T22:11:29.358Z,24.50
2018-07-16T22:13:58.619Z,24.50
2018-07-16T22:16:28.031Z,24.60
2018-07-16T22:18:57.358Z,24.50
2018-07-16T22:21:26.668Z,24.50
2018-07-16T22:23:56.186Z,24.50
2018-07-16T22:26:25.534Z,24.50
2018-07-16T22:28:54.800Z,24.50
2018-07-16T22:31:24.111Z,24.60
2018-07-16T22:33:53.518Z,24.60
2018-07-16T22:36:22.832Z,24.60
2018-07-16T22:38:52.165Z,24.60
2018-07-16T22:41:21.508Z,24.60
2018-07-16T22:43:50.847Z,24.60
2018-07-16T22:46:20.192Z,24.50
2018-07-16T22:48:49.504Z,24.50
2018-07-16T22:51:18.837Z,24.50
2018-07-16T22:53:48.098Z,24.60
2018-07-16T22:56:17.373Z,24.50
2018-07-16T22:58:46.685Z,24.50
2018-07-16T23:01:16.075Z,24.60
2018-07-16T23:03:45.407Z,24.50
2018-07-16T23:06:14.691Z,24.50
2018-07-16T23:08:44.037Z,24.50
2018-07-16T23:11:13.386Z,24.50
2018-07-16T23:13:42.765Z,24.40
2018-07-16T23:18:40.859Z,24.40
2018-07-16T23:23:38.919Z,24.30
2018-07-16T23:26:08.210Z,24.30
2018-07-16T23:28:37.576Z,24.30
2018-07-16T23:31:06.858Z,24.30
2018-07-16T23:33:36.173Z,24.30
2018-07-16T23:36:05.502Z,24.40
2018-07-16T23:38:34.768Z,24.30
2018-07-16T23:41:04.156Z,24.30
2018-07-16T23:48:31.140Z,24.30
2018-07-16T23:51:00.559Z,24.40
2018-07-16T23:53:29.847Z,24.40
2018-07-16T23:55:59.216Z,24.30
2018-07-16T23:58:28.599Z,24.30
